• Join FlightAware (Why Join?)
  • Login
  • US Flag 
06:35AM EDT


 

Airport Tracker/Info


-or-


 

Live Flight TrackerFlight Track Log ✈ N2883 ✈ 08-May-2013 ✈ KDET - KCLE

Flight Track Log - Related Links

Times and Time Zones

All times are in EDT time to prevent confusion due to time zone crossing. See the N2883 flight status page for this flight to view local times or setup timezone preferences in your user account.

Time Position Orientation Groundspeed Altitude Reporting Facility
EDT Latitude Longitude Course Direction KTS MPH feet Rate Location/Type
06:46PM 42.3583 -82.9633 152° Southeast 155 178 3,000  Level Cleveland Center
06:47PM 42.3214 -82.9367 152° Southeast 221 254 3,000 720 Level Cleveland Center
06:48PM 42.2725 -82.8814 140° Southeast 220 253 4,400 1,620 Climbing Cleveland Center
06:49PM 42.2444 -82.8242 124° Southeast 173 199 6,500 1,320 Climbing Cleveland Center
06:50PM 42.2164 -82.7617 121° Southeast 237 273 7,000 120 Climbing Cleveland Center
06:52PM 42.1800 -82.6853 123° Southeast  Level FlightAware Approximate
06:52PM 42.1442 -82.6164 123° Southeast 244 281 6,900  Level Cleveland Center
06:53PM 42.1078 -82.5450 124° Southeast 238 274 7,000  Climbing Cleveland Center
06:54PM 42.0694 -82.4769 127° Southeast 238 274 7,000  Level Cleveland Center
06:55PM 42.0225 -82.4167 136° Southeast 233 268 7,000  Level Cleveland Center
06:56PM 42.0019 -82.3939 141° Southeast 233 268 7,000  Level Cleveland Center
06:56PM 41.9775 -82.3594 134° Southeast 233 268 7,000  Level Cleveland Center
06:57PM 41.9547 -82.3394 147° Southeast 233 268 7,000  Level Cleveland Center
06:57PM 41.9261 -82.3022 136° Southeast 233 268 7,000  Level Cleveland Center
06:58PM 41.9119 -82.2825 134° Southeast 233 268 7,000  Level Cleveland Center
06:58PM 41.8769 -82.2453 142° Southeast 233 268 7,000  Level Cleveland Center
06:59PM 41.8606 -82.2253 138° Southeast 233 268 7,000  Level Cleveland Center
06:59PM 41.8278 -82.1911 142° Southeast 233 268 7,000  Level Cleveland Center
07:00PM 41.7886 -82.1622 151° Southeast 241 277 7,000  Level Cleveland Center
07:00PM 41.7700 -82.1478 150° Southeast 233 268 7,000  Level Cleveland Center
07:01PM 41.7328 -82.1192 150° Southeast 235 270 7,000  Level Cleveland Center
07:01PM 41.7142 -82.1047 150° Southeast 233 268 7,000  Level Cleveland Center
07:02PM 41.6936 -82.0903 152° Southeast 234 269 7,000  Level Cleveland Center
07:02PM 41.6586 -82.0589 146° Southeast 233 268 7,000  Level Cleveland Center
07:03PM 41.6461 -82.0503 153° Southeast 231 266 7,000  Level Cleveland Center
07:03PM 41.6092 -82.0217 150° Southeast 233 268 7,000  Level Cleveland Center
07:04PM 41.5864 -82.0072 155° Southeast 232 267 7,000  Level Cleveland Center
07:04PM 41.5533 -81.9789 147° Southeast 233 268 7,000  Level Cleveland Center
07:05PM 41.5097 -81.9531 156° South 218 251 7,000  Level Cleveland Center
07:05PM 41.4975 -81.9500 169° South 216 249 7,000 -2,100 Level Cleveland Center
07:06PM 41.4453 -81.9569 186° South 236 272 4,900 -2,580 Descending Cleveland Center
07:07PM 41.3931 -81.9669 188° South 222 255 3,100 -1,620 Descending Cleveland Center
07:08PM 41.3706 -81.9278 127° Southeast 131 151 1,900 -960 Descending Cleveland Center
07:09PM 41.3917 -81.8894 54° Northeast 119 137 1,100 -840 Descending Cleveland Center
07:11PM 41.4000 -81.8500 143° Southeast  Level FlightAware Approximate
07:18PM 41.4094 -81.8547 143° Southeast  Level Estimated